createdAt,value
2023-01-17T00:01:05.288Z,68.71
2023-01-17T00:04:02.731Z,68.67
2023-01-17T00:06:55.049Z,67.18
2023-01-17T00:09:56.064Z,67.10
2023-01-17T00:12:32.898Z,67.85
2023-01-17T00:15:26.717Z,68.66
2023-01-17T00:17:57.387Z,69.84
2023-01-17T00:20:48.194Z,68.96
2023-01-17T00:23:43.425Z,67.12
2023-01-17T00:26:17.072Z,66.94
2023-01-17T00:28:47.495Z,67.34
2023-01-17T00:31:23.731Z,67.75
2023-01-17T00:33:56.128Z,68.43
2023-01-17T00:36:28.450Z,68.51
2023-01-17T00:39:27.463Z,67.13
2023-01-17T00:41:55.073Z,66.55
2023-01-17T00:44:41.272Z,66.83
2023-01-17T00:47:57.784Z,67.45
2023-01-17T00:50:55.891Z,68.45
2023-01-17T00:53:45.026Z,67.28
2023-01-17T00:56:39.975Z,65.77
2023-01-17T00:59:41.079Z,65.45
2023-01-17T01:02:32.337Z,66.42
2023-01-17T01:05:20.793Z,67.10
2023-01-17T01:08:22.885Z,67.51
2023-01-17T01:11:11.385Z,68.35
2023-01-17T01:14:02.775Z,67.55
2023-01-17T01:16:54.386Z,66.04
2023-01-17T06:51:47.270Z,80.45
2023-01-17T06:55:55.463Z,74.41
2023-01-17T06:59:56.263Z,73.41
2023-01-17T07:03:08.795Z,73.20
2023-01-17T07:05:43.594Z,71.77
2023-01-17T07:08:17.115Z,70.10
2023-01-17T07:10:46.251Z,69.73
2023-01-17T07:13:13.725Z,69.92
2023-01-17T07:15:41.267Z,70.36
2023-01-17T07:18:13.025Z,70.99
2023-01-17T07:20:43.949Z,70.86
2023-01-17T07:23:13.379Z,69.80
2023-01-17T07:26:02.704Z,69.42
2023-01-17T07:28:39.244Z,69.50
2023-01-17T07:31:08.222Z,69.67
2023-01-17T07:33:44.685Z,69.81
2023-01-17T07:36:25.969Z,69.64
2023-01-17T07:39:24.374Z,68.55
2023-01-17T07:41:54.654Z,68.34
2023-01-17T07:44:48.343Z,68.86
2023-01-17T07:47:18.260Z,69.31
2023-01-17T07:50:01.951Z,70.16
2023-01-17T07:52:50.207Z,69.23
2023-01-17T07:55:19.333Z,67.61
2023-01-17T07:57:50.941Z,67.36
2023-01-17T08:00:47.196Z,67.52
2023-01-17T08:03:19.547Z,68.36
2023-01-17T08:05:55.524Z,69.12
2023-01-17T08:08:30.984Z,69.00
2023-01-17T08:10:58.222Z,68.03
2023-01-17T08:13:36.960Z,67.64
2023-01-17T08:16:08.094Z,67.18
2023-01-17T08:18:35.900Z,67.81
2023-01-17T08:21:13.249Z,67.93
2023-01-17T08:23:57.603Z,68.31
2023-01-17T08:26:33.776Z,68.03
2023-01-17T08:29:04.140Z,66.41
2023-01-17T08:31:40.529Z,66.34
2023-01-17T08:34:17.331Z,66.98
2023-01-17T08:36:44.930Z,67.36
2023-01-17T08:39:14.920Z,67.80
2023-01-17T08:41:45.643Z,68.38
2023-01-17T08:44:14.018Z,68.18
2023-01-17T08:46:49.325Z,68.38
2023-01-17T08:49:25.680Z,68.13
2023-01-17T08:52:07.670Z,68.06
2023-01-17T08:54:35.176Z,68.72
2023-01-17T08:57:04.972Z,69.13
2023-01-17T08:59:34.508Z,70.00
2023-01-17T09:02:06.803Z,70.40
2023-01-17T09:04:49.161Z,69.00
2023-01-17T09:07:17.349Z,68.79
2023-01-17T09:09:45.020Z,69.10
2023-01-17T09:12:12.798Z,68.80
2023-01-17T09:14:45.540Z,69.48
2023-01-17T09:17:14.696Z,70.33
2023-01-17T09:19:47.732Z,70.32
2023-01-17T09:22:15.192Z,68.83
2023-01-17T09:24:42.295Z,67.68
2023-01-17T09:27:09.689Z,67.61
2023-01-17T09:29:36.860Z,67.99
2023-01-17T09:32:04.432Z,68.39
2023-01-17T09:34:33.819Z,68.97
2023-01-17T09:37:01.676Z,68.92
2023-01-17T09:39:31.806Z,67.53
2023-01-17T09:42:19.850Z,66.82
2023-01-17T09:44:51.662Z,67.44
2023-01-17T09:47:20.523Z,67.53
2023-01-17T09:49:47.830Z,67.80
2023-01-17T09:52:17.973Z,68.39
2023-01-17T09:54:46.627Z,68.47
2023-01-17T09:58:05.029Z,66.37
2023-01-17T10:00:54.067Z,66.31
2023-01-17T10:03:40.459Z,66.06
2023-01-17T10:06:36.576Z,65.89
2023-01-17T10:09:24.010Z,66.39
2023-01-17T10:12:06.838Z,67.06
2023-01-17T10:14:53.520Z,65.83
2023-01-17T10:17:36.430Z,64.25
2023-01-17T16:21:33.550Z,76.49
2023-01-17T16:24:01.100Z,73.02
2023-01-17T16:26:29.423Z,72.45
2023-01-17T16:28:56.910Z,72.30
2023-01-17T16:31:27.343Z,72.54
2023-01-17T16:33:58.102Z,72.59
2023-01-17T16:36:25.496Z,71.45
2023-01-17T16:38:53.213Z,70.55
2023-01-17T16:41:22.839Z,70.22
2023-01-17T16:44:02.995Z,70.75
2023-01-17T16:46:30.326Z,70.90
2023-01-17T16:49:00.177Z,70.63
2023-01-17T16:51:27.266Z,70.33
2023-01-17T16:54:06.923Z,68.59
2023-01-17T16:56:34.515Z,67.64
2023-01-17T16:59:02.135Z,67.51
2023-01-17T17:01:32.282Z,67.73
2023-01-17T17:03:59.828Z,68.27
2023-01-17T17:06:27.271Z,68.81
2023-01-17T17:09:01.409Z,68.80
2023-01-17T17:11:28.702Z,67.32
2023-01-17T17:13:55.819Z,66.65
2023-01-17T17:16:32.829Z,66.38
2023-01-17T17:19:07.527Z,66.43
2023-01-17T17:21:35.380Z,66.55
2023-01-17T17:24:07.235Z,67.09
2023-01-17T17:26:35.945Z,67.90
2023-01-17T17:29:04.013Z,67.83
2023-01-17T17:31:31.088Z,66.27
2023-01-17T17:33:59.845Z,65.64
2023-01-17T17:36:27.168Z,65.43
2023-01-17T17:38:57.598Z,66.32
2023-01-17T17:41:28.541Z,66.59
2023-01-17T17:43:55.920Z,67.00
2023-01-17T17:46:24.120Z,67.43
2023-01-17T17:48:53.721Z,67.34
2023-01-17T17:51:34.971Z,66.40
2023-01-17T17:54:03.100Z,65.61
2023-01-17T17:56:30.912Z,66.12
2023-01-17T17:58:58.362Z,67.02
2023-01-17T18:01:25.775Z,67.52
2023-01-17T18:03:54.898Z,68.35
2023-01-17T18:06:22.992Z,68.01
2023-01-17T18:08:52.361Z,67.00
2023-01-17T18:11:22.666Z,66.68
2023-01-17T18:13:52.891Z,66.88
2023-01-17T18:16:25.206Z,67.17
2023-01-17T18:18:54.144Z,67.65
2023-01-17T18:21:25.714Z,67.94
2023-01-17T18:24:15.628Z,68.20
2023-01-17T18:26:52.749Z,66.65
2023-01-17T18:29:20.923Z,66.66
2023-01-17T18:31:50.220Z,67.23
2023-01-17T18:34:24.499Z,66.88
2023-01-17T18:36:52.104Z,67.42
2023-01-17T18:39:20.971Z,67.85
2023-01-17T18:41:48.584Z,67.79
2023-01-17T18:44:16.084Z,66.89
2023-01-17T18:46:43.511Z,66.67
2023-01-17T18:49:11.359Z,66.46
2023-01-17T18:51:38.875Z,66.94
2023-01-17T18:54:07.381Z,67.30
2023-01-17T18:56:35.109Z,67.79
2023-01-17T18:59:05.907Z,67.85
2023-01-17T19:01:35.905Z,66.88
2023-01-17T19:04:04.598Z,66.46
2023-01-17T19:06:38.618Z,66.50
2023-01-17T19:09:15.913Z,66.90
2023-01-17T19:11:47.963Z,67.48
2023-01-17T19:14:17.689Z,67.93
2023-01-17T19:16:45.450Z,68.30
2023-01-17T19:19:17.587Z,67.09
2023-01-17T19:21:45.070Z,66.65
2023-01-17T19:24:13.415Z,66.85
2023-01-17T19:26:44.448Z,67.25
2023-01-17T19:29:11.884Z,67.60
2023-01-17T19:31:46.406Z,68.06
2023-01-17T19:34:23.172Z,67.88
2023-01-17T19:36:50.487Z,66.84
2023-01-17T19:39:17.644Z,66.50
2023-01-17T19:41:45.155Z,66.64
2023-01-17T19:44:13.207Z,67.02
2023-01-17T19:46:43.900Z,67.36
2023-01-17T19:49:12.310Z,68.21
2023-01-17T19:51:42.412Z,68.14
2023-01-17T19:54:12.400Z,67.10
2023-01-17T19:56:39.713Z,66.67
2023-01-17T19:59:10.081Z,66.64
2023-01-17T20:01:37.244Z,66.84
2023-01-17T20:04:05.105Z,67.35
2023-01-17T20:06:40.258Z,68.09
2023-01-17T20:09:09.941Z,67.77
2023-01-17T20:11:38.007Z,66.75
2023-01-17T20:14:05.720Z,66.28
2023-01-17T20:16:35.141Z,66.07
2023-01-17T20:19:03.065Z,66.38
2023-01-17T20:21:31.120Z,66.85
2023-01-17T20:23:59.359Z,67.37
2023-01-17T20:26:31.334Z,67.53
2023-01-17T20:29:01.882Z,66.65
2023-01-17T20:31:30.124Z,66.28
2023-01-17T20:33:57.262Z,66.27
2023-01-17T20:36:26.169Z,66.59
2023-01-17T20:38:54.679Z,66.67
2023-01-17T20:41:31.694Z,67.32
2023-01-17T20:44:00.522Z,67.37
2023-01-17T20:46:29.754Z,66.31
2023-01-17T20:49:01.855Z,65.90
2023-01-17T20:51:29.773Z,65.79
2023-01-17T20:54:00.848Z,66.27
2023-01-17T20:56:30.277Z,66.86
2023-01-17T20:59:00.034Z,67.23
2023-01-17T21:01:33.015Z,67.42
2023-01-17T21:04:00.359Z,66.20
2023-01-17T21:06:37.538Z,65.72
2023-01-17T21:09:08.904Z,65.88
2023-01-17T21:11:39.347Z,66.32
2023-01-17T21:14:09.724Z,66.74
2023-01-17T21:16:37.220Z,67.35
2023-01-17T21:19:04.614Z,67.64
2023-01-17T21:21:32.385Z,66.76
2023-01-17T21:24:05.000Z,66.03
2023-01-17T21:26:32.776Z,65.93
2023-01-17T21:29:03.657Z,66.33
2023-01-17T21:31:34.087Z,66.66
2023-01-17T21:34:03.379Z,67.45
2023-01-17T21:36:33.099Z,67.57
2023-01-17T21:39:04.765Z,66.30
2023-01-17T21:41:37.164Z,65.95
2023-01-17T21:44:08.067Z,66.06
2023-01-17T21:46:39.476Z,66.64
2023-01-17T21:49:08.885Z,66.88
2023-01-17T21:52:02.980Z,67.49
2023-01-17T21:54:52.341Z,67.45
2023-01-17T21:57:39.688Z,66.34
